Maersk Bulan — 9V7693 — position and weather

sailwx.info

Track history (hours):
 
Tides and Currents Weather Stations Pressure Air Temp Water Temp Dewpoint Dewpoint Depression Visibility Wind Speed Wind Dir Waves Ship Positions

Maersk Bulan

Last reported at 2017-Mar-25 18:07 UTC. Time now 2017-Mar-29 17:11 UTC.
Position N 09°33' W 079°48'.

Length 223 m; draft 12 m.

Type: Ship (hazmat cat A). MMSI: 563455000.

Date/timePositionNaut miles runAvg speedWind from/ knotsBaromVisibWave heightAir tempDewpointWater temp
2017-Mar-25 18:07N 09°33' W 079°48'1017.4
2017-Mar-25 17:33N 09°24' W 079°54'3 2.7
2017-Mar-25 16:31N 09°22' W 079°53'0 0.0
2017-Mar-25 15:31N 09°22' W 079°53'0 0.0
2017-Mar-25 14:31N 09°22' W 079°53'0 0.0
2017-Mar-25 13:31N 09°22' W 079°53'0 0.0
2017-Mar-25 12:31N 09°22' W 079°53'0 0.0
2017-Mar-25 11:31N 09°22' W 079°53'0 0.0
2017-Mar-25 10:28N 09°22' W 079°53'0 0.0
2017-Mar-25 09:31N 09°22' W 079°53'0 0.0
2017-Mar-25 08:28N 09°22' W 079°53'0 0.0
2017-Mar-25 07:28N 09°22' W 079°53'0 0.0
2017-Mar-25 06:31N 09°22' W 079°53'0 0.0
2017-Mar-25 05:31N 09°22' W 079°53'0 0.0
2017-Mar-25 04:31N 09°22' W 079°53'0 0.0
2017-Mar-25 03:31N 09°22' W 079°53'0 0.0
2017-Mar-25 02:31N 09°22' W 079°53'0 0.0
2017-Mar-25 01:28N 09°22' W 079°53'0 0.0
2017-Mar-25 00:31N 09°22' W 079°53'4 3.9
2017-Mar-24 23:34N 09°25' W 079°54'3 2.7
2017-Mar-24 22:31N 09°27' W 079°53'0 0.0
2017-Mar-24 21:31N 09°27' W 079°53'0 0.0
2017-Mar-24 20:28N 09°27' W 079°53'0 0.0
2017-Mar-24 19:25N 09°27' W 079°53'0 0.0
2017-Mar-24 18:28N 09°27' W 079°53'0 0.0
2017-Mar-24 17:28N 09°27' W 079°53'0 0.0
2017-Mar-24 16:31N 09°27' W 079°53'0 0.0
2017-Mar-24 15:28N 09°27' W 079°53'0 0.0
2017-Mar-24 14:31N 09°27' W 079°53'0 0.0
2017-Mar-24 13:31N 09°27' W 079°53'0 0.0
2017-Mar-24 12:28N 09°27' W 079°53'0 0.0
2017-Mar-24 11:25N 09°27' W 079°53'0 0.0
2017-Mar-24 10:31N 09°27' W 079°53'0 0.0
2017-Mar-24 09:31N 09°27' W 079°53'0 0.0
2017-Mar-24 08:31N 09°27' W 079°53'0 0.0
2017-Mar-24 07:31N 09°27' W 079°53'0 0.0
2017-Mar-24 06:31N 09°27' W 079°53'0 0.0
2017-Mar-24 05:28N 09°27' W 079°53'0 0.0
2017-Mar-24 04:31N 09°27' W 079°53'0 0.0
2017-Mar-24 03:31N 09°27' W 079°53'0 0.0
2017-Mar-24 02:22N 09°27' W 079°53'0 0.0
2017-Mar-24 01:22N 09°27' W 079°53'0 0.0
2017-Mar-24 00:31N 09°27' W 079°53'0 0.0
2017-Mar-23 23:31N 09°27' W 079°53'0 0.0
2017-Mar-23 22:31N 09°27' W 079°53'0 0.0
2017-Mar-23 21:31N 09°27' W 079°53'0 0.0
2017-Mar-23 20:31N 09°27' W 079°53'0 0.1
2017-Mar-23 19:23N 09°27' W 079°53'7 7.8
2017-Mar-23 18:33N 09°21' W 079°55'5 4.8
2017-Mar-23 17:33N 09°17' W 079°55'1 0.5
2017-Mar-23 16:33N 09°16' W 079°55'1 0.5
2017-Mar-23 15:33N 09°16' W 079°55'3 3.3
2017-Mar-23 14:31N 09°12' W 079°55'  
Track history (hours):
 
Tides and Currents Weather Stations Pressure Air Temp Water Temp Dewpoint Dewpoint Depression Visibility Wind Speed Wind Dir Waves Ship Positions

Maersk Bulan

Last reported at 2017-Mar-25 18:07 UTC. Time now 2017-Mar-29 17:11 UTC.
Position N 09°33' W 079°48'.

Length 223 m; draft 12 m.

Type: Ship (hazmat cat A). MMSI: 563455000.

Date/timePositionNaut miles runAvg speedWind from/ knotsBaromVisibWave heightAir tempDewpointWater temp
2017-Mar-25 18:07N 09°33' W 079°48'1017.4
2017-Mar-25 17:33N 09°24' W 079°54'3 2.7
2017-Mar-25 16:31N 09°22' W 079°53'0 0.0
2017-Mar-25 15:31N 09°22' W 079°53'0 0.0
2017-Mar-25 14:31N 09°22' W 079°53'0 0.0
2017-Mar-25 13:31N 09°22' W 079°53'0 0.0
2017-Mar-25 12:31N 09°22' W 079°53'0 0.0
2017-Mar-25 11:31N 09°22' W 079°53'0 0.0
2017-Mar-25 10:28N 09°22' W 079°53'0 0.0
2017-Mar-25 09:31N 09°22' W 079°53'0 0.0
2017-Mar-25 08:28N 09°22' W 079°53'0 0.0
2017-Mar-25 07:28N 09°22' W 079°53'0 0.0
2017-Mar-25 06:31N 09°22' W 079°53'0 0.0
2017-Mar-25 05:31N 09°22' W 079°53'0 0.0
2017-Mar-25 04:31N 09°22' W 079°53'0 0.0
2017-Mar-25 03:31N 09°22' W 079°53'0 0.0
2017-Mar-25 02:31N 09°22' W 079°53'0 0.0
2017-Mar-25 01:28N 09°22' W 079°53'0 0.0
2017-Mar-25 00:31N 09°22' W 079°53'4 3.9
2017-Mar-24 23:34N 09°25' W 079°54'3 2.7
2017-Mar-24 22:31N 09°27' W 079°53'0 0.0
2017-Mar-24 21:31N 09°27' W 079°53'0 0.0
2017-Mar-24 20:28N 09°27' W 079°53'0 0.0
2017-Mar-24 19:25N 09°27' W 079°53'0 0.0
2017-Mar-24 18:28N 09°27' W 079°53'0 0.0
2017-Mar-24 17:28N 09°27' W 079°53'0 0.0
2017-Mar-24 16:31N 09°27' W 079°53'0 0.0
2017-Mar-24 15:28N 09°27' W 079°53'0 0.0
2017-Mar-24 14:31N 09°27' W 079°53'0 0.0
2017-Mar-24 13:31N 09°27' W 079°53'0 0.0
2017-Mar-24 12:28N 09°27' W 079°53'0 0.0
2017-Mar-24 11:25N 09°27' W 079°53'0 0.0
2017-Mar-24 10:31N 09°27' W 079°53'0 0.0
2017-Mar-24 09:31N 09°27' W 079°53'0 0.0
2017-Mar-24 08:31N 09°27' W 079°53'0 0.0
2017-Mar-24 07:31N 09°27' W 079°53'0 0.0
2017-Mar-24 06:31N 09°27' W 079°53'0 0.0
2017-Mar-24 05:28N 09°27' W 079°53'0 0.0
2017-Mar-24 04:31N 09°27' W 079°53'0 0.0
2017-Mar-24 03:31N 09°27' W 079°53'0 0.0
2017-Mar-24 02:22N 09°27' W 079°53'0 0.0
2017-Mar-24 01:22N 09°27' W 079°53'0 0.0
2017-Mar-24 00:31N 09°27' W 079°53'0 0.0
2017-Mar-23 23:31N 09°27' W 079°53'0 0.0
2017-Mar-23 22:31N 09°27' W 079°53'0 0.0
2017-Mar-23 21:31N 09°27' W 079°53'0 0.0
2017-Mar-23 20:31N 09°27' W 079°53'0 0.1
2017-Mar-23 19:23N 09°27' W 079°53'7 7.8
2017-Mar-23 18:33N 09°21' W 079°55'5 4.8
2017-Mar-23 17:33N 09°17' W 079°55'1 0.5
2017-Mar-23 16:33N 09°16' W 079°55'1 0.5
2017-Mar-23 15:33N 09°16' W 079°55'3 3.3
2017-Mar-23 14:31N 09°12' W 079°55'  

Dump ship's entire track history